Terminal Aerodrome Forecast
Issued by NWS

Home | Current Version | Previous Version | Text Only | Print | Product List | Glossary On
Versions: 1 2 3 4 5 6 7 8 9 10 11 12 13
952
FTUS45 KFGZ 061720
TAFGCN
TAF
KGCN 061720Z 0618/0718 18015G26KT P6SM SCT100
     FM061900 20015G25KT P6SM SCT050 BKN070
      TEMPO 0621/0624 -TSRA BKN060CB
     FM070000 23007KT P6SM -SHRA BKN035 OVC050
      TEMPO 0700/0703 4SM SHRA OVC025
     FM070300 22005KT P6SM -SHRA BKN050=

USA.gov is the U.S. government's official web portal to all federal, state and local government web resources and services.